createdAt,value
2019-04-20T00:01:22.842Z,33.82
2019-04-20T00:03:48.472Z,34.48
2019-04-20T00:06:17.395Z,35.23
2019-04-20T00:08:47.584Z,35.77
2019-04-20T00:11:25.470Z,35.27
2019-04-20T00:13:55.201Z,35.38
2019-04-20T00:16:16.974Z,35.46
2019-04-20T00:18:50.357Z,36.00
2019-04-20T00:21:35.312Z,36.17
2019-04-20T00:24:11.503Z,36.47
2019-04-20T00:27:04.783Z,36.04
2019-04-20T00:29:24.867Z,36.80
2019-04-20T00:31:48.901Z,36.71
2019-04-20T00:34:17.277Z,36.82
2019-04-20T00:36:37.112Z,36.77
2019-04-20T00:39:11.271Z,36.81
2019-04-20T00:41:44.761Z,36.97
2019-04-20T00:44:13.288Z,36.90
2019-04-20T00:46:53.506Z,37.04
2019-04-20T00:49:28.742Z,37.65
2019-04-20T00:52:11.165Z,37.58
2019-04-20T00:54:09.564Z,37.55
2019-04-20T00:56:39.291Z,37.79
2019-04-20T00:59:20.228Z,37.49
2019-04-20T01:02:00.274Z,38.02
2019-04-20T01:04:26.253Z,37.92
2019-04-20T01:07:09.492Z,38.17
2019-04-20T01:09:28.839Z,38.61
2019-04-20T01:11:58.475Z,38.92
2019-04-20T01:14:36.093Z,38.53
2019-04-20T01:17:06.994Z,38.91
2019-04-20T01:19:27.485Z,38.84
2019-04-20T01:22:03.723Z,38.88
2019-04-20T01:24:32.837Z,39.27
2019-04-20T01:27:00.764Z,39.17
2019-04-20T01:29:38.354Z,39.23
2019-04-20T01:32:10.530Z,39.19
2019-04-20T01:34:41.779Z,39.27
2019-04-20T01:37:13.125Z,39.15
2019-04-20T01:39:35.336Z,39.42
2019-04-20T01:41:58.202Z,39.46
2019-04-20T01:44:35.381Z,39.67
2019-04-20T01:47:01.516Z,39.41
2019-04-20T01:49:31.857Z,39.24
2019-04-20T01:52:09.987Z,39.60
2019-04-20T01:54:48.455Z,39.76
2019-04-20T01:57:24.785Z,39.36
2019-04-20T02:00:06.095Z,39.38
2019-04-20T02:02:35.512Z,39.70
2019-04-20T02:05:09.506Z,39.61
2019-04-20T02:07:40.032Z,39.63
2019-04-20T02:10:05.042Z,39.47
2019-04-20T02:12:35.691Z,39.66
2019-04-20T02:15:04.683Z,39.33
2019-04-20T02:17:40.770Z,39.39
2019-04-20T02:20:23.262Z,39.53
2019-04-20T02:22:48.721Z,39.39
2019-04-20T02:25:03.906Z,39.60
2019-04-20T02:27:38.560Z,39.57
2019-04-20T02:30:29.980Z,39.51
2019-04-20T02:33:21.688Z,39.66
2019-04-20T02:36:01.193Z,39.42
2019-04-20T02:38:39.170Z,39.74
2019-04-20T02:40:56.845Z,39.64
2019-04-20T02:43:39.056Z,39.20
2019-04-20T02:46:18.478Z,39.39
2019-04-20T02:48:29.918Z,39.57
2019-04-20T02:50:58.982Z,39.59
2019-04-20T02:56:03.875Z,39.24
2019-04-20T02:58:39.071Z,39.64
2019-04-20T03:00:52.731Z,39.52
2019-04-20T03:03:14.317Z,39.46
2019-04-20T03:05:42.433Z,39.42
2019-04-20T03:08:17.327Z,39.48
2019-04-20T03:11:06.420Z,39.43
2019-04-20T03:13:26.637Z,39.63
2019-04-20T03:15:56.484Z,38.95
2019-04-20T03:18:29.958Z,39.04
2019-04-20T03:20:56.416Z,39.39
2019-04-20T03:23:33.486Z,39.63
2019-04-20T03:25:58.420Z,39.45
2019-04-20T03:28:27.487Z,39.45
2019-04-20T03:33:53.744Z,39.34
2019-04-20T03:36:12.131Z,39.53
2019-04-20T03:38:27.258Z,39.52
2019-04-20T03:40:50.653Z,39.34
2019-04-20T03:43:10.051Z,39.32
2019-04-20T03:45:47.549Z,39.37
2019-04-20T03:48:32.575Z,39.46
2019-04-20T03:50:57.815Z,39.62
2019-04-20T03:53:34.558Z,39.90
2019-04-20T03:56:02.188Z,39.63
2019-04-20T03:58:39.048Z,39.76
2019-04-20T04:01:20.262Z,39.87
2019-04-20T04:04:05.373Z,39.62
2019-04-20T04:06:22.797Z,39.59
2019-04-20T04:08:55.881Z,39.59
2019-04-20T04:11:27.377Z,39.50
2019-04-20T04:13:41.935Z,39.05
2019-04-20T04:16:13.730Z,39.34
2019-04-20T04:18:44.711Z,39.38
2019-04-20T04:21:18.275Z,39.64
2019-04-20T04:23:58.974Z,39.75
2019-04-20T04:26:31.191Z,39.46
2019-04-20T04:29:00.703Z,39.68
2019-04-20T04:31:35.007Z,39.70
2019-04-20T04:34:14.732Z,39.45
2019-04-20T04:36:26.123Z,39.81
2019-04-20T04:39:05.509Z,39.54
2019-04-20T04:41:36.422Z,39.57
2019-04-20T04:44:00.665Z,39.40
2019-04-20T04:46:12.824Z,39.93
2019-04-20T04:48:45.949Z,39.82
2019-04-20T04:51:19.648Z,39.98
2019-04-20T04:53:51.041Z,39.92
2019-04-20T04:56:17.058Z,39.81
2019-04-20T04:58:42.640Z,39.66
2019-04-20T05:01:18.471Z,39.66
2019-04-20T05:04:05.243Z,39.87
2019-04-20T05:06:29.192Z,39.93
2019-04-20T05:08:49.876Z,39.81
2019-04-20T05:11:13.496Z,39.67
2019-04-20T05:13:50.811Z,39.87
2019-04-20T05:16:27.834Z,39.62
2019-04-20T05:19:01.975Z,39.57
2019-04-20T05:21:31.489Z,39.72
2019-04-20T05:24:07.609Z,39.96
2019-04-20T05:26:53.408Z,39.98
2019-04-20T05:29:07.917Z,39.90
2019-04-20T05:31:34.885Z,40.02
2019-04-20T05:34:20.360Z,39.55
2019-04-20T05:36:53.035Z,40.62
2019-04-20T05:39:26.587Z,39.96
2019-04-20T05:41:48.180Z,39.88
2019-04-20T05:44:16.890Z,39.99
2019-04-20T05:46:59.924Z,39.96
2019-04-20T05:49:27.082Z,40.39
2019-04-20T05:52:25.444Z,39.87
2019-04-20T05:54:26.952Z,39.72
2019-04-20T05:56:58.882Z,40.05
2019-04-20T05:59:19.185Z,39.87
2019-04-20T06:01:57.624Z,40.09
2019-04-20T06:04:39.384Z,40.28
2019-04-20T06:06:54.905Z,40.12
2019-04-20T06:09:28.687Z,40.25
2019-04-20T06:12:07.481Z,40.54
2019-04-20T06:14:18.435Z,40.33
2019-04-20T06:17:02.923Z,40.62
2019-04-20T06:19:35.694Z,40.39
2019-04-20T06:22:17.197Z,40.61
2019-04-20T06:25:04.580Z,40.18
2019-04-20T06:27:14.880Z,40.84
2019-04-20T06:29:46.021Z,40.21
2019-04-20T06:32:23.381Z,40.62
2019-04-20T06:34:46.520Z,41.09
2019-04-20T06:37:10.070Z,40.62
2019-04-20T06:42:15.229Z,41.31
2019-04-20T06:44:41.314Z,41.08
2019-04-20T06:47:35.566Z,40.99
2019-04-20T06:49:38.115Z,40.98
2019-04-20T06:52:25.976Z,41.49
2019-04-20T06:55:02.822Z,40.77
2019-04-20T06:57:50.008Z,40.63
2019-04-20T07:00:12.760Z,41.02
2019-04-20T07:02:42.861Z,41.05
2019-04-20T07:07:35.780Z,42.22
2019-04-20T07:10:13.296Z,41.18
2019-04-20T07:12:39.606Z,40.88
2019-04-20T07:15:00.113Z,40.95
2019-04-20T07:20:15.992Z,40.79
2019-04-20T07:22:55.924Z,40.15
2019-04-20T07:25:18.950Z,41.50
2019-04-20T07:27:53.595Z,41.56
2019-04-20T07:30:16.521Z,42.22
2019-04-20T07:33:06.961Z,41.66
2019-04-20T07:35:19.851Z,40.78
2019-04-20T07:40:23.200Z,40.31
2019-04-20T07:45:26.064Z,42.12
2019-04-20T07:47:59.508Z,40.85
2019-04-20T07:50:20.097Z,39.78
2019-04-20T07:52:43.982Z,43.58
2019-04-20T07:57:47.273Z,39.43
2019-04-20T08:00:35.568Z,40.26
2019-04-20T08:03:20.507Z,40.36
2019-04-20T08:05:40.557Z,40.30
2019-04-20T08:08:18.311Z,41.07
2019-04-20T08:10:51.071Z,41.37
2019-04-20T08:13:25.754Z,41.86
2019-04-20T08:18:27.695Z,41.41
2019-04-20T08:20:52.727Z,40.42
2019-04-20T08:23:25.951Z,40.03
2019-04-20T08:25:43.087Z,39.61
2019-04-20T08:28:31.504Z,41.81
2019-04-20T08:31:18.180Z,40.84
2019-04-20T08:34:07.613Z,41.09
2019-04-20T08:36:29.959Z,39.62
2019-04-20T08:39:29.969Z,40.96
2019-04-20T08:41:21.913Z,38.85
2019-04-20T08:43:59.072Z,39.69
2019-04-20T08:46:26.549Z,39.57
2019-04-20T08:48:59.757Z,39.02
2019-04-20T08:51:33.247Z,39.10
2019-04-20T08:53:57.012Z,38.54
2019-04-20T08:56:22.313Z,37.63
2019-04-20T08:58:39.162Z,38.20
2019-04-20T09:01:10.593Z,36.29
2019-04-20T09:03:51.279Z,36.83
2019-04-20T09:06:24.360Z,35.21
2019-04-20T09:08:50.895Z,36.01
2019-04-20T09:11:25.019Z,35.15
2019-04-20T09:13:46.251Z,35.69
2019-04-20T09:16:09.314Z,35.07
2019-04-20T09:18:50.152Z,37.22
2019-04-20T09:21:24.225Z,35.00
2019-04-20T09:24:13.452Z,35.09
2019-04-20T09:26:32.746Z,35.80
2019-04-20T09:28:59.154Z,37.82
2019-04-20T09:31:38.069Z,35.95
2019-04-20T09:34:14.422Z,35.37
2019-04-20T09:37:04.573Z,35.29
2019-04-20T09:39:27.127Z,35.02
2019-04-20T09:42:05.382Z,34.17
2019-04-20T09:44:39.848Z,34.61
2019-04-20T09:47:05.575Z,34.41
2019-04-20T09:49:46.012Z,36.29
2019-04-20T09:52:16.872Z,34.29
2019-04-20T09:54:52.591Z,36.22
2019-04-20T09:57:26.770Z,32.23
2019-04-20T09:59:53.653Z,34.38
2019-04-20T10:02:15.515Z,35.14
2019-04-20T10:04:37.330Z,35.02
2019-04-20T10:07:13.779Z,34.80
2019-04-20T10:09:39.876Z,36.12
2019-04-20T10:12:07.899Z,35.27
2019-04-20T10:14:36.399Z,35.08
2019-04-20T10:17:05.778Z,35.19
2019-04-20T10:19:37.647Z,35.52
2019-04-20T10:22:04.784Z,32.21
2019-04-20T10:24:34.629Z,34.72
2019-04-20T10:27:03.456Z,35.51
2019-04-20T10:29:31.857Z,33.64
2019-04-20T10:32:05.536Z,31.37
2019-04-20T10:34:30.617Z,31.97
2019-04-20T10:37:01.683Z,29.43
2019-04-20T10:39:32.047Z,29.91
2019-04-20T10:42:04.073Z,30.55
2019-04-20T10:44:30.635Z,27.99
2019-04-20T10:46:59.136Z,27.05
2019-04-20T10:49:29.016Z,26.59
2019-04-20T10:51:57.842Z,24.72
2019-04-20T10:54:26.748Z,24.05
2019-04-20T10:56:57.350Z,21.91
2019-04-20T10:59:25.954Z,19.21
2019-04-20T11:01:55.840Z,16.65
2019-04-20T11:04:24.501Z,14.62
2019-04-20T11:06:54.394Z,12.93
2019-04-20T11:09:23.243Z,13.26
2019-04-20T11:11:52.429Z,12.71
2019-04-20T11:14:29.318Z,11.43
2019-04-20T11:16:51.247Z,10.90
2019-04-20T11:19:21.121Z,11.42
2019-04-20T11:21:50.246Z,11.42
2019-04-20T11:24:18.863Z,10.01
2019-04-20T11:26:47.300Z,9.18
2019-04-20T11:29:16.439Z,9.62
2019-04-20T11:31:49.264Z,10.28
2019-04-20T11:34:23.477Z,10.30
2019-04-20T11:36:46.082Z,9.85
2019-04-20T11:39:14.884Z,11.38
2019-04-20T11:41:43.697Z,11.54
2019-04-20T11:44:13.661Z,12.25
2019-04-20T11:46:42.956Z,12.35
2019-04-20T11:49:11.506Z,15.67
2019-04-20T11:51:45.571Z,15.69
2019-04-20T11:54:14.603Z,17.65
2019-04-20T11:56:45.770Z,17.35
2019-04-20T11:59:13.316Z,18.45
2019-04-20T12:02:00.521Z,19.23
2019-04-20T12:04:41.416Z,18.36
2019-04-20T12:07:01.271Z,18.54
2019-04-20T12:09:33.447Z,18.54
2019-04-20T12:12:13.140Z,17.39
2019-04-20T12:14:32.682Z,15.48
2019-04-20T12:17:01.740Z,15.70
2019-04-20T12:19:31.200Z,15.89
2019-04-20T12:22:00.008Z,15.50
2019-04-20T12:24:29.150Z,16.73
2019-04-20T12:26:58.697Z,16.99
2019-04-20T12:29:27.962Z,18.43
2019-04-20T12:31:59.154Z,16.25
2019-04-20T12:34:26.749Z,17.77
2019-04-20T12:36:55.403Z,17.75
2019-04-20T12:39:24.870Z,18.03
2019-04-20T12:41:58.295Z,20.11
2019-04-20T12:44:23.769Z,19.70
2019-04-20T12:46:52.471Z,19.01
2019-04-20T12:49:20.947Z,18.72
2019-04-20T12:51:54.751Z,18.72
2019-04-20T12:54:20.731Z,18.68
2019-04-20T12:56:50.642Z,19.79
2019-04-20T12:59:19.239Z,18.27
2019-04-20T13:01:47.658Z,18.27
2019-04-20T13:04:16.502Z,18.41
2019-04-20T13:06:46.903Z,19.96
2019-04-20T13:09:16.759Z,19.96
2019-04-20T13:12:01.095Z,19.33
2019-04-20T13:14:44.301Z,20.61
2019-04-20T13:17:12.908Z,19.31
2019-04-20T13:19:41.600Z,19.08
2019-04-20T13:22:10.878Z,19.04
2019-04-20T13:24:39.435Z,19.04
2019-04-20T13:27:09.044Z,20.67
2019-04-20T13:29:38.353Z,20.34
2019-04-20T13:32:07.690Z,18.50
2019-04-20T13:34:36.222Z,18.21
2019-04-20T13:37:04.788Z,18.11
2019-04-20T13:39:33.190Z,17.89
2019-04-20T13:42:10.217Z,18.49
2019-04-20T13:44:32.674Z,18.39
2019-04-20T13:47:03.122Z,17.80
2019-04-20T13:49:31.612Z,19.87
2019-04-20T13:52:00.095Z,19.87
2019-04-20T13:54:29.588Z,18.77
2019-04-20T13:57:00.016Z,18.25
2019-04-20T13:59:30.123Z,18.78
2019-04-20T14:02:00.296Z,17.85
2019-04-20T14:04:30.736Z,17.84
2019-04-20T14:06:59.658Z,17.94
2019-04-20T14:09:29.602Z,18.31
2019-04-20T14:12:10.289Z,18.00
2019-04-20T14:14:28.963Z,17.79
2019-04-20T14:16:57.510Z,18.86
2019-04-20T14:19:27.199Z,18.75
2019-04-20T14:21:56.478Z,17.59
2019-04-20T14:24:25.050Z,17.87
2019-04-20T14:26:54.747Z,18.18
2019-04-20T14:29:23.261Z,18.39
2019-04-20T14:31:52.136Z,17.57
2019-04-20T14:34:20.746Z,17.18
2019-04-20T14:36:49.192Z,18.20
2019-04-20T14:39:18.322Z,18.81
2019-04-20T14:41:46.818Z,18.01
2019-04-20T14:44:16.163Z,19.06
2019-04-20T14:46:45.516Z,19.21
2019-04-20T14:49:14.749Z,19.22
2019-04-20T14:51:43.670Z,19.01
2019-04-20T14:54:12.156Z,18.65
2019-04-20T14:56:41.313Z,19.28
2019-04-20T14:59:11.560Z,18.70
2019-04-20T15:01:44.969Z,19.06
2019-04-20T15:04:17.988Z,19.78
2019-04-20T15:06:44.639Z,19.98
2019-04-20T15:09:13.236Z,19.99
2019-04-20T15:11:43.433Z,19.50
2019-04-20T15:14:11.821Z,19.32
2019-04-20T15:16:40.509Z,19.40
2019-04-20T15:19:11.810Z,19.19
2019-04-20T15:21:42.205Z,19.24
2019-04-20T15:24:11.342Z,18.48
2019-04-20T15:26:40.438Z,19.17
2019-04-20T15:29:10.385Z,19.15
2019-04-20T15:31:39.028Z,18.99
2019-04-20T15:34:08.660Z,19.46
2019-04-20T15:36:38.095Z,19.10
2019-04-20T15:39:07.783Z,19.45
2019-04-20T15:41:36.227Z,19.34
2019-04-20T15:44:05.225Z,19.39
2019-04-20T15:46:35.291Z,18.41
2019-04-20T15:49:04.192Z,18.86
2019-04-20T15:51:34.160Z,19.04
2019-04-20T15:54:02.771Z,19.33
2019-04-20T15:56:31.275Z,19.10
2019-04-20T15:58:59.795Z,18.63
2019-04-20T16:01:30.263Z,18.72
2019-04-20T16:04:01.476Z,19.08
2019-04-20T16:06:31.548Z,19.64
2019-04-20T16:09:02.091Z,18.81
2019-04-20T16:11:31.031Z,18.93
2019-04-20T16:14:00.197Z,19.69
2019-04-20T16:16:30.028Z,19.22
2019-04-20T16:18:59.114Z,18.42
2019-04-20T16:21:31.252Z,18.45
2019-04-20T16:24:00.994Z,18.87
2019-04-20T16:26:37.851Z,19.39
2019-04-20T16:29:08.104Z,20.42
2019-04-20T16:31:36.579Z,19.26
2019-04-20T16:34:05.323Z,18.94
2019-04-20T16:36:34.616Z,19.13
2019-04-20T16:39:03.659Z,19.28
2019-04-20T16:41:32.631Z,19.05
2019-04-20T16:44:01.227Z,19.00
2019-04-20T16:46:30.217Z,19.02
2019-04-20T16:48:59.064Z,19.38
2019-04-20T16:51:27.571Z,19.12
2019-04-20T16:53:56.297Z,19.37
2019-04-20T16:56:24.790Z,19.50
2019-04-20T16:58:59.302Z,19.16
2019-04-20T17:01:23.591Z,19.55
2019-04-20T17:04:02.088Z,19.61
2019-04-20T17:06:22.537Z,19.44
2019-04-20T17:08:51.408Z,19.34
2019-04-20T17:11:21.535Z,19.68
2019-04-20T17:13:54.768Z,19.69
2019-04-20T17:16:21.749Z,25.92
2019-04-20T17:18:51.846Z,20.62
2019-04-20T17:21:25.262Z,20.05
2019-04-20T17:23:51.318Z,19.48
2019-04-20T17:26:23.022Z,19.07
2019-04-20T17:28:55.479Z,19.04
2019-04-20T17:31:25.331Z,18.65
2019-04-20T17:34:04.990Z,19.02
2019-04-20T17:36:31.159Z,19.48
2019-04-20T17:38:59.752Z,19.67
2019-04-20T17:41:44.659Z,19.65
2019-04-20T17:44:17.294Z,19.64
2019-04-20T17:46:39.165Z,19.95
2019-04-20T17:49:14.229Z,20.41
2019-04-20T17:51:54.911Z,20.89
2019-04-20T17:54:06.680Z,19.83
2019-04-20T17:56:34.240Z,20.10
2019-04-20T17:59:04.064Z,19.71
2019-04-20T18:01:49.864Z,21.03
2019-04-20T18:04:44.475Z,22.02
2019-04-20T18:06:53.710Z,23.74
2019-04-20T18:09:34.878Z,21.48
2019-04-20T18:11:46.397Z,27.72
2019-04-20T18:14:28.624Z,28.71
2019-04-20T18:17:05.215Z,29.35
2019-04-20T18:19:22.288Z,31.84
2019-04-20T18:21:49.745Z,31.92
2019-04-20T18:24:42.621Z,31.78
2019-04-20T18:27:06.875Z,33.01
2019-04-20T18:29:37.057Z,31.73
2019-04-20T18:31:51.428Z,30.34
2019-04-20T18:34:25.254Z,29.92
2019-04-20T18:36:52.815Z,30.84
2019-04-20T18:39:31.833Z,30.09
2019-04-20T18:42:01.168Z,26.51
2019-04-20T18:44:30.590Z,25.78
2019-04-20T18:47:23.690Z,26.86
2019-04-20T18:49:35.969Z,26.12
2019-04-20T18:51:53.997Z,26.93
2019-04-20T18:54:27.751Z,26.44
2019-04-20T18:56:53.444Z,26.61
2019-04-20T18:59:30.195Z,27.29
2019-04-20T19:01:53.116Z,26.46
2019-04-20T19:04:21.841Z,27.41
2019-04-20T19:06:50.345Z,26.34
2019-04-20T19:09:24.969Z,26.90
2019-04-20T19:11:55.932Z,27.09
2019-04-20T19:14:35.566Z,26.77
2019-04-20T19:17:13.925Z,26.37
2019-04-20T19:19:45.053Z,26.24
2019-04-20T19:22:10.166Z,26.52
2019-04-20T19:24:41.501Z,25.79
2019-04-20T19:27:14.942Z,26.34
2019-04-20T19:29:47.279Z,25.76
2019-04-20T19:32:23.887Z,25.48
2019-04-20T19:34:54.127Z,25.54
2019-04-20T19:37:17.162Z,25.02
2019-04-20T19:39:54.672Z,25.55
2019-04-20T19:42:23.792Z,25.74
2019-04-20T19:44:53.789Z,25.53
2019-04-20T19:47:32.444Z,25.61
2019-04-20T19:49:51.778Z,26.37
2019-04-20T19:52:36.505Z,26.92
2019-04-20T19:55:02.675Z,27.02
2019-04-20T19:57:33.466Z,26.74
2019-04-20T19:59:49.494Z,26.78
2019-04-20T20:02:12.016Z,26.91
2019-04-20T20:04:48.667Z,27.06
2019-04-20T20:07:21.094Z,27.48
2019-04-20T20:09:49.773Z,27.25
2019-04-20T20:12:15.632Z,27.55
2019-04-20T20:14:44.828Z,28.03
2019-04-20T20:17:33.202Z,28.32
2019-04-20T20:20:13.016Z,28.35
2019-04-20T20:22:22.924Z,28.68
2019-04-20T20:24:43.139Z,28.81
2019-04-20T20:27:20.691Z,28.75
2019-04-20T20:29:57.233Z,28.78
2019-04-20T20:32:22.094Z,28.86
2019-04-20T20:34:45.403Z,28.76
2019-04-20T20:37:23.317Z,30.21
2019-04-20T20:39:53.808Z,29.01
2019-04-20T20:42:28.222Z,29.00
2019-04-20T20:44:54.073Z,29.12
2019-04-20T20:47:36.753Z,30.27
2019-04-20T20:50:11.379Z,29.79
2019-04-20T20:52:32.081Z,29.60
2019-04-20T20:54:56.360Z,30.07
2019-04-20T20:57:18.868Z,29.68
2019-04-20T20:59:54.795Z,29.84
2019-04-20T21:02:22.413Z,30.00
2019-04-20T21:04:45.797Z,30.40
2019-04-20T21:07:14.609Z,29.87
2019-04-20T21:09:43.121Z,29.65
2019-04-20T21:12:15.944Z,29.89
2019-04-20T21:14:43.545Z,29.95
2019-04-20T21:17:17.849Z,30.07
2019-04-20T21:19:58.379Z,30.12
2019-04-20T21:22:22.220Z,30.08
2019-04-20T21:24:47.083Z,30.33
2019-04-20T21:27:17.956Z,30.44
2019-04-20T21:29:51.367Z,30.32
2019-04-20T21:32:18.074Z,30.45
2019-04-20T21:34:53.327Z,30.59
2019-04-20T21:37:19.249Z,30.66
2019-04-20T21:39:53.378Z,30.85
2019-04-20T21:42:19.255Z,30.87
2019-04-20T21:44:50.078Z,30.97
2019-04-20T21:47:23.766Z,31.26
2019-04-20T21:49:57.765Z,31.38
2019-04-20T21:52:25.911Z,31.72
2019-04-20T21:54:47.889Z,31.59
2019-04-20T21:57:17.999Z,32.11
2019-04-20T21:59:50.431Z,31.99
2019-04-20T22:02:24.093Z,33.06
2019-04-20T22:04:47.323Z,32.12
2019-04-20T22:07:16.481Z,32.40
2019-04-20T22:09:48.965Z,32.71
2019-04-20T22:12:16.004Z,32.56
2019-04-20T22:14:48.701Z,32.78
2019-04-20T22:17:22.450Z,32.92
2019-04-20T22:19:59.036Z,32.84
2019-04-20T22:22:29.333Z,32.85
2019-04-20T22:25:03.928Z,33.33
2019-04-20T22:27:21.095Z,33.30
2019-04-20T22:29:46.185Z,33.28
2019-04-20T22:32:17.341Z,34.54
2019-04-20T22:34:47.549Z,34.38
2019-04-20T22:37:21.262Z,34.79
2019-04-20T22:39:52.530Z,34.53
2019-04-20T22:42:18.674Z,34.34
2019-04-20T22:44:54.699Z,34.47
2019-04-20T22:47:23.079Z,34.96
2019-04-20T22:50:11.869Z,34.62
2019-04-20T22:52:34.864Z,34.88
2019-04-20T22:55:09.984Z,35.19
2019-04-20T22:57:31.909Z,35.07
2019-04-20T22:59:58.405Z,35.14
2019-04-20T23:02:22.620Z,34.99
2019-04-20T23:04:48.836Z,35.03
2019-04-20T23:07:17.245Z,35.79
2019-04-20T23:09:52.221Z,35.28
2019-04-20T23:12:21.172Z,35.20
2019-04-20T23:14:46.578Z,35.47
2019-04-20T23:17:18.124Z,35.29
2019-04-20T23:19:49.432Z,35.59
2019-04-20T23:22:16.093Z,35.43
2019-04-20T23:24:46.828Z,35.50
2019-04-20T23:27:23.378Z,35.43
2019-04-20T23:29:46.951Z,35.28
2019-04-20T23:32:16.378Z,35.30
2019-04-20T23:34:49.107Z,35.58
2019-04-20T23:37:22.605Z,36.05
2019-04-20T23:39:49.129Z,35.63
2019-04-20T23:42:21.829Z,36.30
2019-04-20T23:45:02.206Z,36.35
2019-04-20T23:47:33.907Z,36.03
2019-04-20T23:50:24.320Z,36.29
2019-04-20T23:52:53.363Z,36.22
2019-04-20T23:55:09.737Z,37.13
2019-04-20T23:57:37.835Z,36.40
